createdAt,value
2022-10-11T00:00:18.295Z,99.90
2022-10-11T00:05:20.046Z,99.90
2022-10-11T00:10:22.092Z,99.90
2022-10-11T00:15:24.376Z,99.90
2022-10-11T00:20:26.611Z,99.90
2022-10-11T00:25:28.544Z,99.90
2022-10-11T00:30:30.356Z,99.90
2022-10-11T00:35:32.295Z,99.90
2022-10-11T00:40:34.116Z,99.90
2022-10-11T00:45:35.856Z,99.90
2022-10-11T00:50:37.998Z,99.90
2022-10-11T00:55:49.078Z,99.90
2022-10-11T01:00:51.384Z,99.90
2022-10-11T01:05:53.555Z,99.90
2022-10-11T01:10:56.186Z,99.90
2022-10-11T01:16:21.714Z,99.90
2022-10-11T01:21:45.344Z,99.90
2022-10-11T01:26:59.295Z,99.90
2022-10-11T01:32:17.118Z,99.90
2022-10-11T01:37:32.751Z,99.90
2022-10-11T01:42:37.844Z,99.90
2022-10-11T01:47:39.700Z,99.90
2022-10-11T01:52:44.728Z,99.90
2022-10-11T01:58:18.308Z,99.90
2022-10-11T02:03:37.930Z,99.90
2022-10-11T02:09:08.073Z,99.90
2022-10-11T02:14:14.995Z,99.90
2022-10-11T02:19:19.876Z,99.90
2022-10-11T02:24:36.225Z,99.90
2022-10-11T02:29:41.519Z,99.90
2022-10-11T02:35:09.940Z,99.90
2022-10-11T02:40:20.075Z,99.90
2022-10-11T02:45:29.248Z,99.90
2022-10-11T02:50:31.480Z,99.90
2022-10-11T02:55:33.289Z,99.90
2022-10-11T03:00:35.075Z,99.90
2022-10-11T03:05:40.677Z,99.90
2022-10-11T03:10:42.468Z,99.90
2022-10-11T03:15:47.495Z,99.90
2022-10-11T03:20:49.286Z,99.90
2022-10-11T03:25:52.133Z,99.90
2022-10-11T03:30:54.182Z,99.90
2022-10-11T03:35:55.931Z,99.90
2022-10-11T03:40:57.717Z,99.90
2022-10-11T03:45:59.446Z,99.90
2022-10-11T03:51:01.183Z,99.90
2022-10-11T03:56:07.492Z,99.90
2022-10-11T04:01:11.147Z,99.90
2022-10-11T04:06:12.902Z,99.90
2022-10-11T04:11:16.091Z,99.90
2022-10-11T04:16:17.847Z,99.90
2022-10-11T04:21:19.555Z,99.90
2022-10-11T04:26:22.256Z,99.90
2022-10-11T04:31:23.969Z,99.90
2022-10-11T04:36:25.856Z,99.90
2022-10-11T04:41:27.764Z,99.90
2022-10-11T04:46:29.867Z,99.90
2022-10-11T04:51:33.704Z,99.90
2022-10-11T04:56:35.454Z,99.90
2022-10-11T05:01:37.343Z,99.90
2022-10-11T05:06:39.247Z,99.90
2022-10-11T05:11:41.036Z,99.90
2022-10-11T05:16:43.011Z,99.90
2022-10-11T05:21:44.746Z,99.90
2022-10-11T05:26:46.531Z,99.90
2022-10-11T05:31:48.360Z,99.90
2022-10-11T05:36:50.111Z,99.90
2022-10-11T05:41:52.140Z,99.90
2022-10-11T05:46:53.856Z,99.90
2022-10-11T05:51:55.638Z,99.90
2022-10-11T05:56:57.400Z,99.90
2022-10-11T06:01:59.157Z,99.90
2022-10-11T06:07:00.886Z,99.90
2022-10-11T06:12:03.256Z,99.90
2022-10-11T06:17:05.187Z,99.90
2022-10-11T06:22:06.948Z,99.90
2022-10-11T06:27:08.754Z,99.90
2022-10-11T06:32:10.510Z,99.90
2022-10-11T06:37:12.428Z,99.90
2022-10-11T06:42:14.135Z,99.90
2022-10-11T06:47:15.897Z,99.90
2022-10-11T06:52:17.646Z,99.90
2022-10-11T06:57:19.371Z,99.90
2022-10-11T07:02:21.267Z,99.90
2022-10-11T07:07:23.036Z,99.90
2022-10-11T07:12:24.870Z,99.90
2022-10-11T07:17:26.621Z,99.90
2022-10-11T07:22:28.408Z,99.90
2022-10-11T07:27:30.207Z,99.90
2022-10-11T07:32:32.153Z,99.90
2022-10-11T07:37:34.732Z,99.90
2022-10-11T07:42:36.641Z,99.90
2022-10-11T07:47:38.431Z,99.90
2022-10-11T07:52:40.630Z,99.90
2022-10-11T07:57:42.485Z,99.90
2022-10-11T08:02:44.244Z,99.90
2022-10-11T09:51:19.591Z,99.90
2022-10-11T09:56:23.252Z,99.90
2022-10-11T10:01:26.237Z,99.90
2022-10-11T10:06:28.525Z,99.90
2022-10-11T10:11:36.820Z,99.90
2022-10-11T10:16:38.549Z,99.90
2022-10-11T10:21:52.410Z,99.90
2022-10-11T10:27:14.448Z,99.90
2022-10-11T10:32:28.442Z,99.90
2022-10-11T10:37:36.457Z,99.90
2022-10-11T10:42:38.286Z,99.90
2022-10-11T10:48:13.096Z,99.90
2022-10-11T10:53:29.851Z,99.90
2022-10-11T10:59:02.653Z,99.90
2022-10-11T11:04:33.438Z,99.90
2022-10-11T11:10:11.073Z,99.90
2022-10-11T11:15:38.135Z,99.90
2022-10-11T11:21:00.103Z,99.90
2022-10-11T11:26:44.163Z,99.90
2022-10-11T11:31:53.178Z,99.90
2022-10-11T11:37:01.820Z,99.90
2022-10-11T11:42:19.489Z,99.90
2022-10-11T11:47:40.513Z,99.90
2022-10-11T11:52:47.063Z,99.90
2022-10-11T11:58:23.459Z,99.90
2022-10-11T12:03:30.359Z,99.90
2022-10-11T12:08:34.864Z,99.90
2022-10-11T12:13:40.908Z,99.90
2022-10-11T12:18:57.746Z,99.90
2022-10-11T12:24:18.335Z,99.90
2022-10-11T12:29:43.656Z,99.90
2022-10-11T12:34:45.845Z,96.70
2022-10-11T12:39:56.062Z,97.90
2022-10-11T12:45:13.225Z,96.70
2022-10-11T12:50:21.624Z,96.00
2022-10-11T12:55:57.554Z,96.00
2022-10-11T13:00:59.352Z,95.90
2022-10-11T13:06:26.673Z,95.50
2022-10-11T13:11:32.674Z,96.30
2022-10-11T13:16:49.260Z,96.00
2022-10-11T13:21:55.698Z,97.30
2022-10-11T13:26:58.118Z,97.30
2022-10-11T13:32:05.988Z,96.10
2022-10-11T13:37:15.596Z,96.00
2022-10-11T13:42:18.591Z,96.10
2022-10-11T13:47:26.805Z,96.10
2022-10-11T13:52:28.627Z,96.10
2022-10-11T13:57:42.558Z,95.60
2022-10-11T14:02:56.131Z,95.70
2022-10-11T14:08:01.070Z,97.00
2022-10-11T14:13:07.524Z,98.10
2022-10-11T14:18:36.721Z,98.70
2022-10-11T14:23:38.447Z,99.00
2022-10-11T14:28:40.684Z,97.70
2022-10-11T14:33:42.569Z,96.90
2022-10-11T14:38:44.312Z,97.10
2022-10-11T14:43:46.232Z,97.70
2022-10-11T14:48:55.380Z,97.90
2022-10-11T14:53:57.602Z,98.80
2022-10-11T14:58:59.326Z,99.90
2022-10-11T15:04:01.058Z,99.90
2022-10-11T15:09:03.807Z,99.90
2022-10-11T15:14:06.517Z,99.90
2022-10-11T15:19:20.608Z,99.90
2022-10-11T15:24:22.558Z,99.90
2022-10-11T15:29:24.548Z,99.90
2022-10-11T15:34:26.323Z,99.90
2022-10-11T15:39:33.835Z,99.90
2022-10-11T15:44:35.586Z,99.90
2022-10-11T15:49:37.427Z,99.90
2022-10-11T15:54:39.183Z,99.90
2022-10-11T15:59:40.907Z,99.90
2022-10-11T16:04:44.111Z,99.90
2022-10-11T16:09:45.828Z,99.90
2022-10-11T16:14:47.535Z,99.90
2022-10-11T16:19:50.454Z,99.90
2022-10-11T16:24:52.270Z,99.90
2022-10-11T16:29:54.115Z,99.90
2022-10-11T16:34:55.885Z,99.90
2022-10-11T16:39:57.927Z,99.90
2022-10-11T16:44:59.663Z,99.90
2022-10-11T16:50:02.096Z,99.90
2022-10-11T16:55:04.315Z,99.90
2022-10-11T17:00:08.983Z,99.90
2022-10-11T17:05:10.738Z,99.90
2022-10-11T17:10:12.488Z,99.90
2022-10-11T17:15:14.235Z,99.90
2022-10-11T17:20:15.987Z,99.90
2022-10-11T17:25:17.827Z,99.90
2022-10-11T17:30:19.739Z,99.90
2022-10-11T17:35:21.501Z,99.90
2022-10-11T17:40:23.233Z,99.90
2022-10-11T17:45:24.997Z,99.90
2022-10-11T17:50:26.804Z,99.90
2022-10-11T17:55:28.514Z,99.90
2022-10-11T18:00:30.247Z,99.90
2022-10-11T18:05:32.923Z,99.90
2022-10-11T18:10:37.051Z,99.90
2022-10-11T18:15:38.795Z,99.90
2022-10-11T18:20:50.322Z,99.90
2022-10-11T18:25:52.044Z,99.90
2022-10-11T18:30:55.501Z,99.90
2022-10-11T18:36:01.351Z,99.90
2022-10-11T18:41:08.599Z,99.90
2022-10-11T18:46:13.159Z,99.90
2022-10-11T18:51:20.671Z,99.90
2022-10-11T18:56:26.831Z,99.90
2022-10-11T19:01:31.387Z,99.90
2022-10-11T19:06:36.756Z,99.90
2022-10-11T19:11:39.263Z,99.90
2022-10-11T19:16:49.711Z,99.90
2022-10-11T19:21:52.107Z,99.90
2022-10-11T19:26:58.414Z,99.90
2022-10-11T19:32:03.609Z,99.90
2022-10-11T19:37:05.980Z,99.90
2022-10-11T19:42:07.819Z,99.90
2022-10-11T19:47:10.137Z,99.90
2022-10-11T19:52:13.310Z,99.90
2022-10-11T19:57:15.133Z,99.90
2022-10-11T20:02:16.863Z,99.90
2022-10-11T20:07:18.592Z,99.90
2022-10-11T20:12:20.487Z,99.90
2022-10-11T20:17:42.186Z,99.90
2022-10-11T20:22:44.185Z,99.90
2022-10-11T20:27:46.975Z,99.90
2022-10-11T20:32:48.928Z,99.90
2022-10-11T20:37:50.655Z,99.90
2022-10-11T20:42:52.413Z,99.90
2022-10-11T20:47:54.202Z,99.90
2022-10-11T20:52:55.983Z,99.90
2022-10-11T20:57:57.723Z,99.90
2022-10-11T21:02:59.476Z,99.90
2022-10-11T21:08:01.558Z,99.90
2022-10-11T21:13:04.100Z,99.90
2022-10-11T21:18:05.892Z,99.90
2022-10-11T21:23:08.526Z,99.90
2022-10-11T21:28:10.296Z,99.90
2022-10-11T21:33:12.031Z,99.90
2022-10-11T21:38:13.766Z,99.90
2022-10-11T21:43:15.503Z,99.90
2022-10-11T21:48:17.373Z,99.90
2022-10-11T21:53:19.135Z,99.90
2022-10-11T21:58:20.835Z,99.90
2022-10-11T22:03:22.667Z,99.90
2022-10-11T22:08:24.455Z,99.90
2022-10-11T22:13:27.785Z,99.90
2022-10-11T22:18:33.317Z,99.90
2022-10-11T22:23:36.079Z,99.90
2022-10-11T22:28:37.920Z,99.90
2022-10-11T22:33:39.798Z,99.90
2022-10-11T22:38:43.313Z,99.90
2022-10-11T22:43:45.264Z,99.90
2022-10-11T22:48:47.064Z,99.90
2022-10-11T22:53:48.895Z,99.90
2022-10-11T22:58:50.648Z,99.90
2022-10-11T23:03:52.453Z,99.90
2022-10-11T23:08:54.278Z,99.90
2022-10-11T23:13:55.998Z,99.90
2022-10-11T23:18:57.771Z,99.90
2022-10-11T23:23:59.514Z,99.90
2022-10-11T23:29:01.256Z,99.90
2022-10-11T23:34:03.043Z,99.90
2022-10-11T23:39:04.939Z,99.90
2022-10-11T23:44:06.737Z,99.90
2022-10-11T23:49:08.466Z,99.90
2022-10-11T23:54:10.235Z,99.90
2022-10-11T23:59:11.963Z,99.90
